Riverside, Illinois
Current Conditions -  °F | °C
As of 6:53 PM on Wednesday 17 Dec 2014 (Local Time) from KMDW Reporting Station
Overcast Overcast  
Wind Chill: 19°   Ceiling: 2600
Heat Index: 27°   Visibility: 10mi
Dew Point: 16°   Wind: 7mph
Humidity: 63%   Direction: 300°WNW
Pressure: 30.27"   Gusts: NA
Location:  41.83°N, 87.82°W
Report Text: KMDW 180053Z 30006KT 10SM OVC026 M03/M09 A3027 RMK AO2 SLP264 T10281089
Loading
Personal Weather Stations






























Interactive Weather Map New forecast layout! Learn more

10-Day Weather Forecast

Advertisements
Track Severe Weather on mobile